Time;durP1;ratioP1;P1;durP2;ratioP2;P2;SDS_P1;SDS_P2;PMS_P1;PMS_P2;Temp;Humidity;BMP_temperature;BMP_pressure;BME280_temperature;BME280_humidity;BME280_pressure;Samples;Min_cycle;Max_cycle;Signal;HPM_P1;HPM_P2
2023/09/30 00:00:12;;;;;;;7.57;1.80;;;;;;;12.33;90.03;102421.00;7399957;19;19926;-64
2023/09/30 00:02:41;;;;;;;13.20;3.20;;;;;;;12.31;89.97;102428.38;7400095;19;20038;-63
2023/09/30 00:05:14;;;;;;;8.80;2.40;;;;;;;12.32;90.32;102436.34;7400843;19;20784;-63
2023/09/30 00:07:43;;;;;;;10.60;2.28;;;;;;;12.33;90.58;102437.19;7398971;19;20357;-64
2023/09/30 00:10:12;;;;;;;9.55;2.20;;;;;;;12.34;90.67;102438.91;7399096;19;20349;-64
2023/09/30 00:12:43;;;;;;;9.75;2.28;;;;;;;12.36;90.46;102445.84;7400598;19;19918;-64
2023/09/30 00:15:12;;;;;;;8.73;2.00;;;;;;;12.37;90.57;102444.84;7399588;19;20325;-63
2023/09/30 00:17:41;;;;;;;13.25;2.47;;;;;;;12.36;90.60;102440.44;7400275;19;20282;-64
2023/09/30 00:20:14;;;;;;;7.72;1.95;;;;;;;12.36;90.51;102443.16;7400252;19;19918;-64
2023/09/30 00:22:43;;;;;;;9.23;2.03;;;;;;;12.38;90.40;102449.28;7400427;19;19970;-64
2023/09/30 00:25:12;;;;;;;11.20;1.73;;;;;;;12.37;90.47;102444.84;7399456;19;19947;-64
2023/09/30 00:27:40;;;;;;;8.45;2.30;;;;;;;12.37;90.51;102441.31;7399215;19;20264;-63
2023/09/30 00:30:10;;;;;;;10.43;2.22;;;;;;;12.35;90.58;102441.44;7399978;19;19918;-63
2023/09/30 00:32:39;;;;;;;9.30;1.90;;;;;;;12.33;90.47;102437.19;7398780;19;19926;-64
2023/09/30 00:35:11;;;;;;;14.82;3.13;;;;;;;12.33;90.60;102442.59;7399389;19;19929;-64
2023/09/30 00:38:02;;;;;;;17.75;2.22;;;;;;;12.31;90.70;102456.25;7397749;19;19933;-64
2023/09/30 00:40:31;;;;;;;12.20;2.30;;;;;;;12.31;90.75;102448.16;7400194;19;19928;-64
2023/09/30 00:43:01;;;;;;;15.43;2.22;;;;;;;12.33;90.69;102451.56;7399450;19;19911;-63
2023/09/30 00:45:29;;;;;;;10.02;1.83;;;;;;;12.33;91.06;102443.47;7398415;19;19930;-63
2023/09/30 00:47:58;;;;;;;4.75;2.00;;;;;;;12.34;90.82;102436.22;7398793;19;19926;-63
2023/09/30 00:50:28;;;;;;;11.85;2.17;;;;;;;12.33;91.00;102435.34;7398737;19;19915;-64
2023/09/30 00:52:57;;;;;;;14.55;2.58;;;;;;;12.32;90.88;102433.66;7399917;19;19982;-63
2023/09/30 00:55:28;;;;;;;5.78;1.65;;;;;;;12.31;91.20;102434.63;7399332;19;20223;-64
2023/09/30 00:57:57;;;;;;;7.28;1.85;;;;;;;12.30;91.18;102434.81;7398559;19;20297;-64
2023/09/30 01:00:26;;;;;;;9.90;1.70;;;;;;;12.28;91.06;102427.69;7399100;19;19922;-64
2023/09/30 01:02:54;;;;;;;8.43;2.13;;;;;;;12.28;91.38;102425.00;7399654;19;19918;-63
2023/09/30 01:05:23;;;;;;;9.50;2.83;;;;;;;12.27;91.06;102422.44;7398434;19;19932;-63
2023/09/30 01:07:52;;;;;;;8.48;2.20;;;;;;;12.26;91.60;102436.94;7399348;19;20332;-63
2023/09/30 01:10:20;;;;;;;9.35;2.10;;;;;;;12.24;91.09;102447.91;7398368;19;19933;-63
2023/09/30 01:13:12;;;;;;;9.05;2.42;;;;;;;12.21;91.72;102450.03;7398084;19;20006;-64
2023/09/30 01:16:00;;;;;;;8.50;1.90;;;;;;;12.18;91.63;102447.63;7397286;19;19974;-63
2023/09/30 01:18:29;;;;;;;9.10;2.10;;;;;;;12.17;91.49;102441.38;7395465;19;19943;-63
2023/09/30 01:20:59;;;;;;;8.43;2.50;;;;;;;12.18;91.70;102455.75;7398973;19;19964;-63
2023/09/30 01:23:30;;;;;;;11.65;2.40;;;;;;;12.16;91.60;102457.75;7397990;19;19943;-63
2023/09/30 01:25:59;;;;;;;9.55;1.67;;;;;;;12.16;91.58;102468.56;7398258;19;19922;-63
2023/09/30 01:28:28;;;;;;;5.15;1.88;;;;;;;12.15;91.68;102474.97;7397706;19;20236;-63
2023/09/30 01:30:56;;;;;;;7.82;2.35;;;;;;;12.14;91.80;102467.84;7397808;19;22513;-63
2023/09/30 01:33:25;;;;;;;10.43;1.80;;;;;;;12.12;91.58;102475.28;7396629;19;19940;-63
2023/09/30 01:35:53;;;;;;;6.55;1.98;;;;;;;12.08;91.91;102476.56;7397560;19;19935;-63
2023/09/30 01:38:22;;;;;;;7.82;2.30;;;;;;;12.04;92.22;102473.28;7397717;19;19923;-64
2023/09/30 01:40:55;;;;;;;6.55;2.17;;;;;;;12.02;92.28;102480.69;7397052;19;20342;-63
2023/09/30 01:43:23;;;;;;;11.93;2.28;;;;;;;12.02;92.40;102483.41;7397520;19;19927;-64
2023/09/30 01:45:52;;;;;;;13.10;1.90;;;;;;;12.04;92.45;102484.09;7396327;19;19947;-63
2023/09/30 01:48:20;;;;;;;8.15;2.25;;;;;;;12.03;92.40;102486.97;7396670;19;19911;-63
2023/09/30 01:50:49;;;;;;;11.80;2.05;;;;;;;12.04;92.48;102480.53;7396391;19;19922;-63
2023/09/30 01:53:17;;;;;;;8.45;2.22;;;;;;;12.02;92.80;102482.53;7396655;19;19914;-63
2023/09/30 01:55:47;;;;;;;10.32;2.00;;;;;;;12.02;92.62;102486.09;7396355;19;20419;-64
2023/09/30 01:58:19;;;;;;;8.52;1.90;;;;;;;12.02;92.68;102482.53;7396375;19;19986;-64
2023/09/30 02:00:47;;;;;;;6.10;2.10;;;;;;;12.01;92.42;102476.28;7395256;19;19918;-63
2023/09/30 02:03:17;;;;;;;11.30;2.40;;;;;;;12.02;92.60;102474.44;7396456;19;19986;-63
2023/09/30 02:05:45;;;;;;;15.45;3.17;;;;;;;12.03;92.37;102476.16;7396099;19;19919;-63
2023/09/30 02:08:14;;;;;;;6.43;1.70;;;;;;;12.01;92.42;102475.44;7395843;19;19914;-63
2023/09/30 02:10:43;;;;;;;6.85;1.80;;;;;;;12.01;92.42;102475.44;7397095;19;20075;-64
2023/09/30 02:13:11;;;;;;;7.13;1.95;;;;;;;12.00;92.50;102471.03;7395560;19;19915;-63
2023/09/30 02:15:45;;;;;;;10.40;2.35;;;;;;;11.97;92.47;102472.19;7396378;19;19925;-63
2023/09/30 02:18:14;;;;;;;6.63;1.92;;;;;;;11.98;92.44;102478.44;7395663;19;19975;-63
2023/09/30 02:20:44;;;;;;;7.95;1.98;;;;;;;11.97;92.79;102474.03;7396769;19;19943;-63
2023/09/30 02:23:16;;;;;;;8.63;2.08;;;;;;;11.96;92.73;102481.28;7395277;19;19922;-63
2023/09/30 02:25:45;;;;;;;10.18;2.22;;;;;;;11.96;92.89;102480.41;7395610;19;19918;-63
2023/09/30 02:28:14;;;;;;;7.15;1.98;;;;;;;11.97;92.54;102487.53;7393627;19;20809;-63
2023/09/30 02:31:07;;;;;;;11.15;2.03;;;;;;;11.95;92.59;102484.97;7398369;19;20357;-62
2023/09/30 02:33:35;;;;;;;6.22;1.80;;;;;;;11.94;92.82;102486.00;7402304;19;19918;-63
2023/09/30 02:36:05;;;;;;;7.35;2.15;;;;;;;11.92;92.94;102484.41;7402055;19;20305;-63
2023/09/30 02:38:34;;;;;;;9.75;2.20;;;;;;;11.92;92.70;102489.81;7402566;19;20325;-63
2023/09/30 02:41:03;;;;;;;8.48;2.22;;;;;;;11.90;92.74;102481.88;7401132;19;20364;-63
2023/09/30 02:43:52;;;;;;;8.68;2.20;;;;;;;11.88;93.03;102489.25;7399615;19;20367;-63
2023/09/30 02:46:23;;;;;;;8.70;1.65;;;;;;;11.89;92.87;102485.56;7400757;19;19983;-63
2023/09/30 02:48:52;;;;;;;8.32;2.30;;;;;;;11.88;92.79;102480.31;7401666;19;19918;-63
2023/09/30 02:51:20;;;;;;;7.47;2.20;;;;;;;11.87;93.02;102492.94;7401712;19;19918;-63
2023/09/30 02:53:49;;;;;;;11.88;2.42;;;;;;;11.87;92.94;102492.09;7401568;19;19922;-63
2023/09/30 02:56:19;;;;;;;7.53;2.30;;;;;;;11.87;92.69;102475.91;7401831;19;19930;-63
2023/09/30 02:58:48;;;;;;;7.97;2.22;;;;;;;11.85;93.20;102486.00;7400280;19;20280;-64
2023/09/30 03:01:16;;;;;;;8.35;2.15;;;;;;;11.84;92.95;102487.84;7400725;19;19923;-63
2023/09/30 03:03:48;;;;;;;7.22;2.17;;;;;;;11.85;92.95;102491.41;7401436;19;20002;-63
2023/09/30 03:06:18;;;;;;;7.40;2.42;;;;;;;11.83;93.06;102492.41;7402108;19;19922;-63
2023/09/30 03:08:48;;;;;;;6.22;1.70;;;;;;;11.82;92.98;102477.19;7401226;19;20425;-63
2023/09/30 03:11:16;;;;;;;12.57;1.80;;;;;;;11.81;93.05;102488.16;7400425;19;19939;-63
2023/09/30 03:13:45;;;;;;;11.07;2.20;;;;;;;11.80;93.21;102481.91;7401577;19;19943;-63
2023/09/30 03:16:13;;;;;;;7.65;2.15;;;;;;;11.81;93.35;102485.44;7400067;19;20144;-63
2023/09/30 03:18:44;;;;;;;7.32;1.90;;;;;;;11.81;93.32;102498.94;7401494;19;19919;-63
2023/09/30 03:21:19;;;;;;;9.18;3.03;;;;;;;11.79;93.55;102484.72;7400657;19;19974;-63
2023/09/30 03:23:48;;;;;;;5.72;1.90;;;;;;;11.79;93.11;102479.34;7400976;19;19974;-64
2023/09/30 03:26:16;;;;;;;8.60;2.88;;;;;;;11.79;93.25;102477.47;7400723;19;19915;-63
2023/09/30 03:28:46;;;;;;;9.77;2.17;;;;;;;11.81;93.43;102485.44;7401321;19;19944;-63
2023/09/30 03:31:14;;;;;;;6.53;2.13;;;;;;;11.82;93.30;102484.47;7401035;19;19943;-63
2023/09/30 03:33:43;;;;;;;8.93;2.28;;;;;;;11.83;93.69;102487.00;7400048;19;19918;-64
2023/09/30 03:36:12;;;;;;;8.75;2.22;;;;;;;11.82;93.88;102482.59;7400500;19;19918;-63
2023/09/30 03:38:43;;;;;;;9.88;2.63;;;;;;;11.83;93.61;102483.44;7401334;19;19922;-63
2023/09/30 03:41:13;;;;;;;9.68;2.58;;;;;;;11.80;93.97;102487.28;7399926;19;20274;-63
2023/09/30 03:43:42;;;;;;;5.97;2.10;;;;;;;11.80;93.59;102491.84;7400093;19;19914;-63
2023/09/30 03:46:12;;;;;;;8.88;1.92;;;;;;;11.79;93.50;102487.44;7400535;19;20358;-63
2023/09/30 03:48:42;;;;;;;7.25;2.25;;;;;;;11.77;93.60;102484.91;7399665;19;19931;-63
2023/09/30 03:51:13;;;;;;;6.32;2.30;;;;;;;11.79;93.80;102487.44;7400301;19;19978;-64
2023/09/30 03:53:45;;;;;;;10.15;2.17;;;;;;;11.76;93.72;102493.97;7400172;19;19930;-63
2023/09/30 03:56:14;;;;;;;11.55;2.47;;;;;;;11.75;93.86;102486.88;7399174;19;19930;-64
2023/09/30 03:58:48;;;;;;;8.63;2.20;;;;;;;11.73;94.31;102482.63;7400927;19;19930;-63
2023/09/30 04:01:16;;;;;;;6.93;2.42;;;;;;;11.74;94.30;102477.06;7400115;19;19918;-63
2023/09/30 04:03:46;;;;;;;8.40;2.80;;;;;;;11.74;94.31;102485.16;7400293;19;19923;-65
2023/09/30 04:06:14;;;;;;;13.80;3.00;;;;;;;11.74;94.35;102490.56;7400743;19;19918;-63
2023/09/30 04:08:46;;;;;;;5.53;2.38;;;;;;;11.73;94.60;102488.03;7400398;19;19989;-64
2023/09/30 04:11:18;;;;;;;7.32;2.10;;;;;;;11.72;94.49;102489.03;7400577;19;19971;-63
2023/09/30 04:13:47;;;;;;;7.00;2.05;;;;;;;11.70;94.72;102491.81;7399433;19;20326;-64
2023/09/30 04:16:18;;;;;;;10.07;2.30;;;;;;;11.69;94.85;102486.59;7399373;19;19918;-63
2023/09/30 04:18:46;;;;;;;10.32;2.85;;;;;;;11.68;94.85;102492.97;7399271;19;19922;-64
2023/09/30 04:21:15;;;;;;;7.50;2.03;;;;;;;11.67;95.25;102489.41;7399893;19;19927;-64
2023/09/30 04:23:46;;;;;;;5.13;2.10;;;;;;;11.66;94.71;102490.41;7399944;19;20402;-63
2023/09/30 04:26:15;;;;;;;8.93;2.72;;;;;;;11.65;95.11;102485.19;7400172;19;19911;-64
2023/09/30 04:28:44;;;;;;;9.68;2.60;;;;;;;11.66;95.35;102489.56;7399692;19;19919;-64
2023/09/30 04:31:13;;;;;;;11.68;2.33;;;;;;;11.63;95.62;102489.84;7400247;19;19922;-63
2023/09/30 04:33:42;;;;;;;7.88;2.65;;;;;;;11.65;95.76;102493.28;7399715;19;19960;-64
2023/09/30 04:36:12;;;;;;;7.22;2.30;;;;;;;11.66;95.34;102490.41;7399411;19;20380;-63
2023/09/30 04:38:41;;;;;;;10.15;2.42;;;;;;;11.66;95.53;102487.72;7399632;19;19931;-64
2023/09/30 04:41:12;;;;;;;7.78;2.80;;;;;;;11.66;95.78;102490.41;7399520;19;19921;-64
2023/09/30 04:43:43;;;;;;;7.38;2.28;;;;;;;11.67;95.72;102496.66;7399563;19;19918;-64
2023/09/30 04:46:12;;;;;;;7.72;2.50;;;;;;;11.66;95.70;102495.81;7398827;19;19943;-63
2023/09/30 04:48:41;;;;;;;9.93;2.63;;;;;;;11.67;95.71;102500.22;7399793;19;20548;-63
2023/09/30 04:51:10;;;;;;;8.15;2.53;;;;;;;11.69;96.11;102510.88;7398799;19;19918;-63
2023/09/30 04:53:41;;;;;;;8.02;2.70;;;;;;;11.69;95.75;102503.59;7398562;19;19919;-63
2023/09/30 04:56:12;;;;;;;10.27;3.25;;;;;;;11.69;95.74;102503.59;7399053;19;19923;-63
2023/09/30 04:58:40;;;;;;;9.55;2.42;;;;;;;11.69;96.03;102503.59;7399187;19;19949;-63
2023/09/30 05:01:09;;;;;;;8.05;2.50;;;;;;;11.68;95.91;102510.03;7399514;19;20333;-63
2023/09/30 05:03:38;;;;;;;9.40;2.35;;;;;;;11.68;96.20;102522.66;7397900;19;20797;-62
2023/09/30 05:06:07;;;;;;;8.98;2.60;;;;;;;11.67;96.07;102520.97;7398558;19;19914;-62
2023/09/30 05:08:36;;;;;;;11.70;2.95;;;;;;;11.66;96.33;102530.03;7398916;19;19923;-63
2023/09/30 05:11:05;;;;;;;10.98;3.05;;;;;;;11.64;95.95;102532.91;7398744;19;20333;-62
2023/09/30 05:13:36;;;;;;;9.73;2.58;;;;;;;11.62;96.34;102534.03;7398223;19;19927;-63
2023/09/30 05:16:07;;;;;;;11.10;2.95;;;;;;;11.61;96.28;102535.88;7397941;19;19951;-63
2023/09/30 05:18:35;;;;;;;14.50;3.55;;;;;;;11.60;96.27;102536.91;7398669;19;19929;-63
2023/09/30 05:21:06;;;;;;;8.75;3.08;;;;;;;11.58;96.53;102540.72;7398068;19;19939;-63
2023/09/30 05:23:35;;;;;;;8.40;2.95;;;;;;;11.58;96.27;102544.25;7398012;19;19953;-63
2023/09/30 05:26:04;;;;;;;11.27;2.80;;;;;;;11.58;96.34;102540.72;7396988;19;20529;-63
2023/09/30 05:28:32;;;;;;;8.48;3.05;;;;;;;11.57;96.15;102541.69;7398273;19;19931;-62
2023/09/30 05:31:04;;;;;;;10.70;3.53;;;;;;;11.54;96.40;102540.16;7397098;19;19918;-64
2023/09/30 05:33:32;;;;;;;8.75;2.60;;;;;;;11.54;96.15;102545.56;7397766;19;20340;-62
2023/09/30 05:36:02;;;;;;;8.02;2.95;;;;;;;11.52;96.51;102544.00;7397284;19;19919;-63
2023/09/30 05:38:31;;;;;;;12.65;2.95;;;;;;;11.50;96.45;102549.53;7397558;19;19930;-63
2023/09/30 05:41:01;;;;;;;10.10;2.80;;;;;;;11.49;96.67;102555.91;7396939;19;19986;-62
2023/09/30 05:43:30;;;;;;;11.32;3.25;;;;;;;11.49;96.48;102555.91;7397295;19;19914;-62
2023/09/30 05:45:59;;;;;;;11.27;2.92;;;;;;;11.49;96.34;102560.44;7396135;19;19923;-63
2023/09/30 05:48:31;;;;;;;7.15;2.70;;;;;;;11.49;96.54;102560.44;7396342;19;19918;-63
2023/09/30 05:50:59;;;;;;;10.23;3.17;;;;;;;11.48;96.42;102564.13;7396421;19;19918;-63
2023/09/30 05:53:28;;;;;;;7.05;2.60;;;;;;;11.47;96.49;102563.31;7396589;19;19955;-62
2023/09/30 05:55:56;;;;;;;7.72;2.63;;;;;;;11.47;96.40;102552.53;7397075;19;20357;-63
2023/09/30 05:58:26;;;;;;;10.93;3.85;;;;;;;11.48;96.15;102566.84;7396850;19;19929;-62
2023/09/30 06:00:54;;;;;;;8.32;2.97;;;;;;;11.49;96.54;102560.44;7396469;19;19959;-62
2023/09/30 06:03:24;;;;;;;8.25;2.50;;;;;;;11.50;96.45;102572.97;7396284;19;20022;-63
2023/09/30 06:05:55;;;;;;;13.15;3.85;;;;;;;11.51;96.21;102569.28;7399816;19;19922;-66
2023/09/30 06:08:24;;;;;;;9.63;2.75;;;;;;;11.51;96.22;102572.84;7402146;19;20422;-62
2023/09/30 06:10:54;;;;;;;13.55;3.10;;;;;;;11.54;96.51;102574.38;7402138;19;20855;-63
2023/09/30 06:13:23;;;;;;;10.55;2.63;;;;;;;11.53;96.21;102576.22;7401167;19;20393;-63
2023/09/30 06:15:51;;;;;;;10.55;3.20;;;;;;;11.51;95.95;102575.53;7402342;19;20427;-63
2023/09/30 06:18:20;;;;;;;7.07;3.70;;;;;;;11.53;95.84;102584.31;7402337;19;19914;-62
2023/09/30 06:21:11;;;;;;;9.38;3.38;;;;;;;11.51;95.84;102586.31;7401163;19;19949;-62
2023/09/30 06:23:40;;;;;;;11.30;3.13;;;;;;;11.53;95.77;102592.41;7403191;19;19931;-62
2023/09/30 06:26:09;;;;;;;10.93;2.95;;;;;;;11.54;95.61;102590.56;7404455;19;19979;-62
2023/09/30 06:28:40;;;;;;;7.97;2.47;;;;;;;11.54;95.69;102588.72;7402323;19;19959;-62
2023/09/30 06:31:10;;;;;;;8.45;2.72;;;;;;;11.55;95.59;102587.75;7401362;19;19939;-63
2023/09/30 06:33:39;;;;;;;7.13;2.92;;;;;;;11.57;95.58;102590.28;7401977;19;20377;-62
2023/09/30 06:36:14;;;;;;;9.40;2.90;;;;;;;11.57;95.47;102593.84;7402194;19;19922;-62
2023/09/30 06:38:43;;;;;;;7.30;2.42;;;;;;;11.60;95.43;102604.38;7401736;19;19918;-63
2023/09/30 06:41:17;;;;;;;6.38;2.42;;;;;;;11.61;95.23;102599.81;7401058;19;19927;-62
2023/09/30 06:43:46;;;;;;;9.55;2.75;;;;;;;11.64;95.29;102605.81;7402056;19;19922;-63
2023/09/30 06:46:16;;;;;;;9.82;3.08;;;;;;;11.67;95.48;102607.34;7401249;19;19919;-63
2023/09/30 06:49:04;;;;;;;;;;;;;;;11.58;95.81;102613.59;7402442;19;19919;-63
2023/09/30 06:51:36;;;;;;;8.00;2.88;;;;;;;11.68;95.09;102612.63;7401406;19;19948;-63
2023/09/30 06:54:07;;;;;;;8.27;2.90;;;;;;;11.74;95.09;102619.31;7400971;19;19944;-63
2023/09/30 06:56:36;;;;;;;;;;;;;;;11.65;95.73;102623.69;7402983;19;19985;-63
2023/09/30 06:59:06;;;;;;;13.18;3.40;;;;;;;11.77;95.02;102617.19;7401313;19;20286;-63
2023/09/30 07:01:34;;;;;;;10.85;4.05;;;;;;;11.82;94.89;102617.59;7400736;19;20071;-62
2023/09/30 07:04:24;;;;;;;10.30;3.92;;;;;;;11.88;94.96;102609.94;7399702;19;19926;-63
2023/09/30 07:06:56;;;;;;;10.75;3.63;;;;;;;11.93;94.36;102618.47;7400649;19;20348;-62
2023/09/30 07:09:26;;;;;;;10.10;3.78;;;;;;;11.96;94.42;102615.47;7400359;19;19923;-63
2023/09/30 07:11:55;;;;;;;9.68;3.63;;;;;;;12.01;94.42;102626.69;7400269;19;19919;-63
2023/09/30 07:14:23;;;;;;;9.20;3.58;;;;;;;12.07;94.20;102631.53;7400450;19;19926;-63
2023/09/30 07:16:52;;;;;;;10.32;3.25;;;;;;;12.11;94.35;102631.09;7397250;19;19926;-62
2023/09/30 07:19:20;;;;;;;11.50;3.25;;;;;;;12.17;94.40;102635.06;7400408;19;19915;-62
2023/09/30 07:21:49;;;;;;;11.40;3.30;;;;;;;12.22;94.16;102625.53;7400403;19;19914;-63
2023/09/30 07:24:20;;;;;;;9.23;3.05;;;;;;;12.28;94.23;102627.66;7400356;19;19918;-62
2023/09/30 07:26:49;;;;;;;9.45;3.03;;;;;;;12.33;93.84;102626.38;7400289;19;19943;-62
2023/09/30 07:29:17;;;;;;;13.35;3.45;;;;;;;12.39;93.94;102634.75;7400905;19;19932;-62
2023/09/30 07:31:46;;;;;;;11.70;3.30;;;;;;;12.44;93.52;102635.16;7400594;19;20012;-62
2023/09/30 07:34:15;;;;;;;5.32;3.15;;;;;;;12.51;93.72;102644.38;7400645;19;20333;-62
2023/09/30 07:36:43;;;;;;;10.27;3.15;;;;;;;12.58;93.70;102644.66;7400879;19;20443;-64
2023/09/30 07:39:12;;;;;;;7.03;3.40;;;;;;;12.63;93.39;102640.53;7400552;19;19949;-62
2023/09/30 07:41:43;;;;;;;11.05;3.63;;;;;;;12.68;92.95;102642.78;7400094;19;19958;-62
2023/09/30 07:44:12;;;;;;;9.40;3.22;;;;;;;12.72;93.08;102657.72;7400394;19;20377;-67
2023/09/30 07:46:43;;;;;;;9.50;3.50;;;;;;;12.77;92.94;102658.09;7399402;19;19922;-62
2023/09/30 07:49:32;;;;;;;11.25;4.32;;;;;;;12.82;93.05;102658.50;7397946;19;19918;-62
2023/09/30 07:52:01;;;;;;;13.25;3.13;;;;;;;12.90;92.80;102663.22;7399988;19;19919;-62
2023/09/30 07:54:29;;;;;;;7.55;3.50;;;;;;;12.95;92.48;102656.31;7400340;19;19922;-63
2023/09/30 07:57:01;;;;;;;13.65;3.53;;;;;;;13.01;92.33;102655.75;7399645;19;20286;-63
2023/09/30 07:59:29;;;;;;;8.85;3.72;;;;;;;13.07;92.66;102659.72;7399357;19;19935;-62
2023/09/30 08:01:58;;;;;;;20.67;3.97;;;;;;;13.13;92.72;102664.53;7399745;19;19915;-63
2023/09/30 08:04:27;;;;;;;7.93;3.65;;;;;;;13.20;92.58;102665.66;7398371;19;19991;-63
2023/09/30 08:06:56;;;;;;;13.43;3.50;;;;;;;13.26;92.19;102669.59;7399233;19;19943;-62
2023/09/30 08:09:24;;;;;;;8.57;3.60;;;;;;;13.32;92.16;102669.88;7399812;19;19958;-63
2023/09/30 08:11:53;;;;;;;11.27;3.60;;;;;;;13.39;92.10;102676.38;7399640;19;19933;-63
2023/09/30 08:14:25;;;;;;;10.05;3.28;;;;;;;13.46;91.62;102663.09;7399895;19;19926;-63
2023/09/30 08:16:54;;;;;;;9.75;3.13;;;;;;;13.54;91.60;102669.44;7399717;19;19930;-63
2023/09/30 08:19:23;;;;;;;9.07;3.05;;;;;;;13.62;91.50;102671.38;7400540;19;20018;-63
2023/09/30 08:21:52;;;;;;;8.68;3.08;;;;;;;13.71;91.16;102669.63;7399268;19;20432;-63
2023/09/30 08:24:40;;;;;;;12.93;2.97;;;;;;;13.82;90.98;102666.66;7397485;19;19919;-63
2023/09/30 08:27:09;;;;;;;10.52;3.35;;;;;;;13.89;90.63;102675.91;7399349;19;19922;-63
2023/09/30 08:29:40;;;;;;;15.65;3.10;;;;;;;13.97;90.34;102670.56;7398547;19;19918;-63
2023/09/30 08:32:09;;;;;;;10.45;3.33;;;;;;;14.04;90.33;102674.34;7399786;19;19918;-63
2023/09/30 08:34:39;;;;;;;9.25;3.35;;;;;;;14.13;89.70;102681.53;7397130;19;19923;-62
2023/09/30 08:37:07;;;;;;;10.82;3.03;;;;;;;14.21;89.46;102665.34;7399268;19;19930;-62
2023/09/30 08:39:40;;;;;;;9.75;2.78;;;;;;;14.31;89.51;102663.38;7398506;19;19954;-63
2023/09/30 08:42:33;;;;;;;11.80;2.70;;;;;;;14.42;89.37;102663.16;7396109;19;19915;-63
2023/09/30 08:45:04;;;;;;;9.75;3.70;;;;;;;14.54;89.39;102670.00;7399392;19;19932;-62
2023/09/30 08:47:34;;;;;;;8.50;3.15;;;;;;;14.63;88.41;102678.19;7397564;19;19918;-63
2023/09/30 08:50:05;;;;;;;8.38;2.80;;;;;;;14.69;88.19;102670.28;7398272;19;19958;-62
2023/09/30 08:52:35;;;;;;;10.30;2.83;;;;;;;14.77;87.91;102667.63;7399246;19;20101;-63
2023/09/30 08:55:04;;;;;;;7.63;2.67;;;;;;;14.84;87.53;102673.28;7397705;19;19926;-63
2023/09/30 08:57:33;;;;;;;11.25;3.17;;;;;;;14.93;87.51;102675.00;7398808;19;19922;-63
2023/09/30 09:00:06;;;;;;;8.35;2.85;;;;;;;14.99;86.65;102693.34;7398087;19;19919;-63
2023/09/30 09:02:37;;;;;;;10.48;2.40;;;;;;;15.06;86.94;102694.41;7397696;19;19919;-64
2023/09/30 09:05:06;;;;;;;9.30;3.30;;;;;;;15.12;86.20;102698.34;7397370;19;19956;-63
2023/09/30 09:07:34;;;;;;;6.28;2.50;;;;;;;15.20;86.58;102688.38;7397593;19;20628;-64
2023/09/30 09:10:08;;;;;;;7.03;2.40;;;;;;;15.25;86.25;102691.44;7397473;19;20308;-63
2023/09/30 09:12:59;;;;;;;8.23;2.92;;;;;;;15.34;85.70;102686.91;7396318;19;20642;-63
2023/09/30 09:15:31;;;;;;;10.00;2.55;;;;;;;15.41;84.93;102693.38;7397798;19;19939;-64
2023/09/30 09:18:00;;;;;;;9.35;2.10;;;;;;;15.50;85.00;102689.69;7397733;19;19947;-63
2023/09/30 09:20:28;;;;;;;8.05;2.42;;;;;;;15.59;84.71;102694.16;7398511;19;19925;-63
2023/09/30 09:23:00;;;;;;;9.18;2.28;;;;;;;15.69;84.23;102688.56;7397879;19;19959;-63
2023/09/30 09:25:28;;;;;;;9.02;2.92;;;;;;;15.75;84.23;102691.47;7397700;19;19918;-63
2023/09/30 09:27:57;;;;;;;6.75;2.40;;;;;;;15.83;84.32;102691.47;7397980;19;19918;-63
2023/09/30 09:30:28;;;;;;;8.10;2.10;;;;;;;15.90;83.96;102683.53;7396529;19;19976;-63
2023/09/30 09:33:01;;;;;;;9.00;2.65;;;;;;;15.95;82.59;102688.44;7396582;19;19922;-63
2023/09/30 09:35:32;;;;;;;6.30;1.80;;;;;;;16.02;83.74;102697.63;7396525;19;19924;-63
2023/09/30 09:38:03;;;;;;;10.35;2.03;;;;;;;16.08;82.99;102700.53;7397400;19;19914;-62
2023/09/30 09:40:33;;;;;;;8.43;2.10;;;;;;;16.17;83.22;102699.53;7399148;19;19918;-63
2023/09/30 09:43:05;;;;;;;8.25;2.35;;;;;;;16.27;82.58;102710.22;7403316;19;19919;-63
2023/09/30 09:45:36;;;;;;;6.10;1.80;;;;;;;16.37;81.79;102710.06;7402187;19;19967;-63
2023/09/30 09:48:08;;;;;;;6.03;2.00;;;;;;;16.46;81.59;102715.31;7402969;19;19981;-63
2023/09/30 09:50:38;;;;;;;;;;;;;;;16.45;80.89;102718.19;7405135;19;20253;-63
2023/09/30 09:53:07;;;;;;;6.75;1.90;;;;;;;16.59;81.73;102720.28;7400512;19;19930;-63
2023/09/30 09:55:38;;;;;;;7.85;2.42;;;;;;;16.67;80.49;102709.38;7402672;19;19914;-63
2023/09/30 09:58:10;;;;;;;6.38;1.50;;;;;;;16.67;79.38;102693.06;7402407;19;20253;-63
2023/09/30 10:00:39;;;;;;;4.72;1.80;;;;;;;16.72;79.45;102699.69;7401997;19;19926;-63
2023/09/30 10:03:11;;;;;;;7.88;1.58;;;;;;;16.77;78.32;102691.00;7402487;19;19923;-63
2023/09/30 10:05:42;;;;;;;8.15;1.83;;;;;;;16.87;78.59;102705.25;7402504;19;19925;-63
2023/09/30 10:08:17;;;;;;;7.38;1.90;;;;;;;16.96;77.34;102722.41;7399381;19;20899;-63
2023/09/30 10:10:46;;;;;;;8.70;1.55;;;;;;;17.06;77.54;102709.47;7402178;19;19932;-63
2023/09/30 10:13:45;;;;;;;6.70;1.50;;;;;;;17.05;75.44;102722.22;7402325;19;19915;-63
2023/09/30 10:16:44;;;;;;;6.30;1.90;;;;;;;17.07;75.10;102724.78;7401093;19;19922;-62
2023/09/30 10:19:17;;;;;;;7.80;1.58;;;;;;;17.20;75.71;102728.66;7401841;19;19929;-63
2023/09/30 10:22:16;;;;;;;8.27;1.40;;;;;;;17.27;74.11;102730.66;7402585;19;20008;-63
2023/09/30 10:24:45;;;;;;;7.43;1.42;;;;;;;17.38;75.86;102727.59;7401830;19;20278;-63
2023/09/30 10:27:34;;;;;;;9.30;1.50;;;;;;;17.36;73.09;102722.28;7400516;19;19922;-63
2023/09/30 10:30:13;;;;;;;3.22;1.00;;;;;;;17.35;73.08;102719.75;7401659;19;19987;-63
2023/09/30 10:33:14;;;;;;;9.70;2.22;;;;;;;17.22;73.62;102710.25;7401968;19;20563;-63
2023/09/30 10:35:50;;;;;;;4.30;1.15;;;;;;;17.30;73.56;102711.28;7402163;19;19958;-63
2023/09/30 10:38:42;;;;;;;10.15;1.25;;;;;;;17.31;73.73;102719.25;7402391;19;19915;-63
2023/09/30 10:41:12;;;;;;;6.70;1.60;;;;;;;17.48;74.40;102725.47;7402440;19;19918;-62
2023/09/30 10:43:42;;;;;;;5.78;1.33;;;;;;;17.64;74.00;102718.13;7402520;19;19922;-63
2023/09/30 10:46:33;;;;;;;8.40;1.30;;;;;;;17.75;72.28;102714.13;7401306;19;19922;-63
2023/09/30 10:49:20;;;;;;;8.52;1.23;;;;;;;17.78;73.16;102715.63;7402168;19;19929;-63
2023/09/30 10:51:52;;;;;;;5.25;1.48;;;;;;;17.74;73.11;102723.31;7400606;19;20772;-63
2023/09/30 10:54:25;;;;;;;6.22;1.40;;;;;;;17.87;72.99;102733.66;7401607;19;20398;-63
2023/09/30 10:56:55;;;;;;;5.70;1.10;;;;;;;18.03;72.70;102726.22;7401973;19;19939;-63
2023/09/30 10:59:25;;;;;;;5.13;1.45;;;;;;;18.14;72.75;102728.53;7400760;19;20629;-63
2023/09/30 11:01:54;;;;;;;4.13;1.13;;;;;;;18.21;71.40;102730.56;7400317;19;20258;-63
2023/09/30 11:04:23;;;;;;;6.43;1.45;;;;;;;18.38;72.60;102727.47;7401241;19;20463;-63
2023/09/30 11:06:54;;;;;;;8.13;1.73;;;;;;;18.44;70.28;102723.19;7401504;19;19918;-63
2023/09/30 11:09:24;;;;;;;4.22;1.80;;;;;;;18.63;70.85;102713.66;7401224;19;20471;-63
2023/09/30 11:11:54;;;;;;;10.82;1.67;;;;;;;18.82;69.95;102713.13;7400479;19;20298;-63
2023/09/30 11:14:24;;;;;;;11.25;2.03;;;;;;;18.95;69.54;102713.31;7401559;19;19919;-63
2023/09/30 11:16:54;;;;;;;4.60;1.00;;;;;;;19.15;68.26;102724.56;7400698;19;19910;-63
2023/09/30 11:19:25;;;;;;;11.05;1.60;;;;;;;19.24;67.30;102712.50;7401171;19;20341;-63
2023/09/30 11:22:17;;;;;;;9.45;2.63;;;;;;;19.36;65.76;102710.97;7400424;19;19952;-63
2023/09/30 11:24:46;;;;;;;7.18;1.80;;;;;;;19.33;67.37;102705.88;7400771;19;19931;-63
2023/09/30 11:27:15;;;;;;;6.68;1.80;;;;;;;19.41;67.83;102705.78;7401180;19;19914;-63
2023/09/30 11:29:51;;;;;;;5.25;1.17;;;;;;;19.30;63.68;102700.78;7400823;19;19943;-64
2023/09/30 11:32:26;;;;;;;8.63;1.17;;;;;;;18.97;64.65;102706.66;7400570;19;19951;-63
2023/09/30 11:34:55;;;;;;;6.20;1.25;;;;;;;18.75;66.71;102704.84;7400424;19;19982;-63
2023/09/30 11:37:33;;;;;;;8.38;1.27;;;;;;;18.83;66.61;102693.81;7400415;19;20013;-63
2023/09/30 11:40:24;;;;;;;4.45;1.40;;;;;;;18.70;67.14;102688.16;7398953;19;19918;-63
2023/09/30 11:43:12;;;;;;;5.05;1.58;;;;;;;18.79;65.31;102687.03;7400608;19;19977;-63